Weather at Rakkestad Astorp Airfield

Public forecast

Using degrees Celsius for public forecast. Weather courtesy of forecast.io.

Closest aviation weather report (METAR) to Rakkestad Astorp Airfield

Closest report is Moss Airport, Rygge, 17.2 nm (31.9 km) W.

2024/05/28 16:20 (retrieved 32 minutes ago)

ENRY 281620Z 11005KT 5000 RA TS VV014 18/14 Q1009

Closest aviation forecast (TAF) to Rakkestad Astorp Airfield

Closest forecast is Moss Airport, Rygge, 17.2 nm (31.9 km) W.

2024/05/28 14:36 Ammendment (retrieved 2 hours ago)

TAF AMD ENRY 281426Z 2814/2912 12008KT 9999 -SHRA SCT030TCU BKN050 TEMPO 2815/2819 3000 SHRA TS BKN014 SCT025CB BECMG 2819/2821 20010KT PROB40 2819/2906 BKN008